HOURLY OBSERVATIONS


Time
(EST)
Temperature
°F
Dew Point
°F
Humidity
%
Wind
mph
Pressure
mb
Precip.
Hour
in
Precip.
Day
in
6 Hr
Max Temp
°F
6 Hr
Min Temp
°F
23 00:00 52.9 48.2 84 SSW 4 G 10 1000.8 0.12
22 23:00 52.5 48.1 85 S 3 G 10 1002.2 0.12
22 22:00 53.2 48.5 84 S 4 G 10 1003.5 0.12
22 21:00 53.8 49.1 84 S 5 G 13 1004.6 0.12
22 20:00 53.9 49.2 84 S 7 G 19 1005.7 0.01 0.12
22 19:00 53.2 48.5 84 S 4 G 11 1006.8 0.11 58.6 53.2
22 18:00 55.9 48.5 76 SSW 5 G 16 1007.4 0.01 0.11
22 17:00 57.5 47.8 70 SSW 7 G 15 1008.0 0.10
22 16:00 58.0 48.7 71 SSW 4 G 12 1008.4 0.10
22 15:00 58.5 48.8 70 SSW 4 G 13 1009.3 0.10
22 14:00 57.9 49.3 73 S 4 G 12 1010.1 0.10
22 13:00 56.9 48.7 74 SSW 4 G 13 1011.4 0.10 57.2 46.1
22 12:00 54.5 49.1 82 S 4 G 13 1012.2 0.10
22 11:00 49.7 48.0 94 SSW 4 G 12 1013.9 0.10
22 10:00 47.8 47.0 97 S 4 G 10 1014.1 0.10
22 09:00 46.4 45.6 97 SSE 1 G 8 1014.4 0.10
22 08:00 46.2 45.4 97 S 0 G 6 1014.5 0.10
22 07:00 46.4 45.6 97 S 3 G 7 1015.0 0.01 0.10 46.8 44.0
22 06:00 46.5 45.7 97 S 2 G 7 1015.6 0.04 0.09
22 05:00 46.0 45.2 97 SSW 2 G 9 1016.0 0.05
22 04:00 45.0 44.2 97 S 0 G 3 1016.2 0.01 0.05
22 03:00 44.6 43.8 97 SSE 1 G 6 1016.7 0.04 0.04
22 02:00 44.8 44.0 97 SSW 0 G 3 1017.2 0.00
22 01:00 44.0 43.2 97 S 1 G 5 1017.4 0.00 44.9 43.3
22 00:00 43.8 42.7 96 SSW 0 G 4 1018.3 0.05
21 23:00 43.6 42.5 96 SSW 0 G 3 1018.6 0.05
21 22:00 43.4 42.3 96 SSW 0 G 3 1018.6 0.05
21 21:00 43.9 42.6 95 SSW 0 G 3 1018.6 0.04 0.05
21 20:00 44.4 42.8 94 WSW 1 G 5 1018.9 0.01
21 19:00 44.8 42.6 92 SW 3 G 8 1018.7 0.01 45.6 42.9
21 18:00 44.7 41.9 90 SW 3 G 7 1018.4 0.01
21 17:00 45.1 42.1 89 SSW 3 G 8 1018.3 0.01
21 16:00 45.5 42.4 89 SSW 3 G 8 1017.8 0.01
21 15:00 45.6 42.8 90 SSW 3 G 12 1017.7 0.01
21 14:00 43.8 42.7 96 SW 5 G 9 1017.8 0.01
21 13:00 42.9 42.1 97 SSW 4 G 8 1018.6 0.01 42.9 38.1
21 12:00 41.6 40.5 96 SSW 2 G 6 1019.7 0.01
21 11:00 40.6 39.5 96 SSW 0 G 6 1020.5 0.01
21 10:00 39.8 38.8 96 SW 3 G 5 1020.8 0.01
21 09:00 39.2 37.9 95 SW 0 G 4 1020.4 0.01
21 08:00 38.6 37.3 95 SW 2 G 4 1020.2 0.01
21 07:00 38.1 36.3 93 S 0 G 2 1020.3 0.01 0.01 39.1 37.5
21 06:00 38.2 35.8 91 SSW 1 G 4 1020.3 0.00
21 05:00 39.1 35.8 88 SSW 2 G 5 1020.3 0.00
21 04:00 38.6 34.5 85 SW 0 G 4 1020.2 0.00
21 03:00 37.5 33.4 85 SSW 1 G 3 1020.7 0.00
21 02:00 38.4 33.7 83 SSW 1 G 2 1020.0 0.00
21 01:00 38.0 33.6 84 S 0 G 2 1019.7 0.00 38.0 33.4
21 00:00 37.6 32.9 83 SW 1 G 4 1020.0 0.00
20 23:00 37.5 32.5 82 SW 1 G 4 1020.3 0.01
20 22:00 37.0 31.7 81 SW 0 G 3 1019.8 0.01
20 21:00 33.5 28.9 83 WSW 0 G 4 1019.6 0.01
20 20:00 35.4 29.5 79 SW 1 G 4 1019.3 0.01
20 19:00 37.7 30.5 75 SW 3 G 6 1019.3 0.01 44.2 37.7
20 18:00 39.5 30.9 71 SW 4 G 8 1018.6 0.01
20 17:00 41.8 31.3 66 SW 4 G 9 1018.0 0.01
20 16:00 43.4 31.7 63 WSW 6 G 14 1017.3 0.01
20 15:00 43.2 31.5 63 WSW 4 G 12 1016.9 0.01
20 14:00 42.5 31.2 64 SW 5 G 18 1016.6 0.01
20 13:00 41.4 30.5 65 WSW 5 G 11 1017.1 0.01 41.5 32.4
20 12:00 40.2 29.8 66 WSW 4 G 12 1017.6 0.00
20 11:00 38.3 29.0 69 WSW 5 G 14 1018.0 0.00
20 10:00 36.1 28.0 72 SW 6 G 12 1017.2 0.00
20 09:00 33.8 26.7 75 SW 7 G 17 1016.7 0.00
20 08:00 32.5 25.8 76 SW 5 G 14 1016.2 0.00
20 07:00 32.4 25.4 75 SW 5 G 11 1015.9 0.00 33.8 32.4
20 06:00 32.8 25.4 74 SW 6 G 14 1015.5 0.00
20 05:00 33.0 25.3 73 SW 6 G 16 1015.1 0.00
20 04:00 33.5 25.8 73 SW 5 G 15 1015.0 0.00
20 03:00 33.7 26.0 73 SW 8 G 15 1015.0 0.00
20 02:00 33.3 24.9 71 SW 8 G 16 1014.2 0.00
20 01:00 33.2 24.1 69 SW 5 G 21 1013.6 0.00 34.7 32.9